createdAt,value
2018-10-05T00:01:56.008Z,13.50
2018-10-05T00:04:24.547Z,13.50
2018-10-05T00:06:52.931Z,13.50
2018-10-05T00:09:21.408Z,13.50
2018-10-05T00:11:49.897Z,13.40
2018-10-05T00:14:18.335Z,13.50
2018-10-05T00:16:46.730Z,13.40
2018-10-05T00:19:15.091Z,13.40
2018-10-05T00:21:43.662Z,13.40
2018-10-05T00:24:12.044Z,13.40
2018-10-05T00:26:40.413Z,13.40
2018-10-05T00:29:08.915Z,13.40
2018-10-05T00:31:37.575Z,13.40
2018-10-05T00:34:05.952Z,13.40
2018-10-05T00:36:34.291Z,13.40
2018-10-05T00:39:02.708Z,13.40
2018-10-05T00:41:31.134Z,13.40
2018-10-05T00:43:59.483Z,13.30
2018-10-05T00:46:27.987Z,13.30
2018-10-05T00:48:56.385Z,13.30
2018-10-05T00:51:24.854Z,13.30
2018-10-05T00:53:53.322Z,13.30
2018-10-05T00:56:21.665Z,13.20
2018-10-05T00:58:50.059Z,13.20
2018-10-05T01:03:48.603Z,13.20
2018-10-05T01:06:17.006Z,13.10
2018-10-05T01:08:45.380Z,13.10
2018-10-05T01:11:13.762Z,13.10
2018-10-05T01:13:42.322Z,13.10
2018-10-05T01:16:10.671Z,13.00
2018-10-05T01:18:39.055Z,13.00
2018-10-05T01:21:07.426Z,12.90
2018-10-05T01:23:35.804Z,13.00
2018-10-05T01:26:04.155Z,12.90
2018-10-05T01:28:32.603Z,12.90
2018-10-05T01:31:01.018Z,12.90
2018-10-05T01:33:29.544Z,12.90
2018-10-05T01:35:57.936Z,12.90
2018-10-05T01:38:27.303Z,12.80
2018-10-05T01:40:55.695Z,12.80
2018-10-05T01:43:24.094Z,12.70
2018-10-05T01:45:52.439Z,12.80
2018-10-05T01:48:21.053Z,12.70
2018-10-05T01:50:49.403Z,12.70
2018-10-05T01:53:17.806Z,12.70
2018-10-05T01:55:46.165Z,12.60
2018-10-05T01:58:14.534Z,12.60
2018-10-05T02:00:43.008Z,12.60
2018-10-05T02:03:11.439Z,12.60
2018-10-05T02:05:39.796Z,12.50
2018-10-05T02:08:08.198Z,12.60
2018-10-05T02:10:36.548Z,12.50
2018-10-05T02:13:04.948Z,12.50
2018-10-05T02:15:33.588Z,12.50
2018-10-05T02:18:02.015Z,12.50
2018-10-05T02:20:30.403Z,12.50
2018-10-05T02:22:58.806Z,12.40
2018-10-05T02:25:27.156Z,12.40
2018-10-05T02:27:55.555Z,12.40
2018-10-05T02:30:24.227Z,12.40
2018-10-05T02:32:52.713Z,12.30
2018-10-05T02:35:21.011Z,12.30
2018-10-05T02:37:49.456Z,12.30
2018-10-05T02:40:17.898Z,12.30
2018-10-05T02:42:46.313Z,12.30
2018-10-05T02:45:14.754Z,12.20
2018-10-05T02:47:43.153Z,12.20
2018-10-05T02:50:11.519Z,12.20
2018-10-05T02:52:39.924Z,12.10
2018-10-05T02:55:08.341Z,12.10
2018-10-05T02:57:36.973Z,12.10
2018-10-05T03:00:15.232Z,12.10
2018-10-05T03:02:43.602Z,12.10
2018-10-05T03:05:12.086Z,12.10
2018-10-05T03:07:40.462Z,12.10
2018-10-05T03:10:08.822Z,12.10
2018-10-05T03:12:37.236Z,12.10
2018-10-05T03:15:05.624Z,12.10
2018-10-05T03:17:34.122Z,12.10
2018-10-05T03:20:02.498Z,12.10
2018-10-05T03:22:30.938Z,12.10
2018-10-05T03:25:00.023Z,12.00
2018-10-05T03:27:28.411Z,12.00
2018-10-05T03:29:57.319Z,12.00
2018-10-05T03:32:25.783Z,11.90
2018-10-05T03:34:54.184Z,11.90
2018-10-05T03:37:23.720Z,11.80
2018-10-05T03:39:52.498Z,11.90
2018-10-05T03:42:20.951Z,11.80
2018-10-05T03:44:49.347Z,11.80
2018-10-05T03:47:17.710Z,11.70
2018-10-05T03:49:46.076Z,11.70
2018-10-05T03:52:14.472Z,11.70
2018-10-05T03:54:42.866Z,11.70
2018-10-05T03:57:11.202Z,11.70
2018-10-05T03:59:39.683Z,11.70
2018-10-05T04:02:08.047Z,11.70
2018-10-05T04:04:36.620Z,11.70
2018-10-05T04:07:04.982Z,11.70
2018-10-05T04:09:33.363Z,11.60
2018-10-05T04:12:01.758Z,11.60
2018-10-05T04:14:30.111Z,11.60
2018-10-05T04:16:58.462Z,11.60
2018-10-05T04:19:26.996Z,11.60
2018-10-05T04:21:55.370Z,11.60
2018-10-05T04:24:24.527Z,11.50
2018-10-05T04:26:52.908Z,11.50
2018-10-05T04:29:21.286Z,11.50
2018-10-05T04:31:49.682Z,11.50
2018-10-05T04:34:18.119Z,11.50
2018-10-05T04:36:46.483Z,11.50
2018-10-05T04:39:14.914Z,11.40
2018-10-05T04:41:43.293Z,11.40
2018-10-05T04:44:11.713Z,11.40
2018-10-05T04:46:40.113Z,11.30
2018-10-05T04:49:08.551Z,11.30
2018-10-05T04:51:36.949Z,11.30
2018-10-05T04:54:05.342Z,11.30
2018-10-05T04:56:33.755Z,11.30
2018-10-05T04:59:02.159Z,11.30
2018-10-05T05:01:30.535Z,11.30
2018-10-05T05:03:59.173Z,11.30
2018-10-05T05:06:27.566Z,11.30
2018-10-05T05:08:55.973Z,11.20
2018-10-05T05:11:24.327Z,11.20
2018-10-05T05:13:52.752Z,11.20
2018-10-05T05:16:21.087Z,11.20
2018-10-05T05:18:49.481Z,11.30
2018-10-05T05:21:18.171Z,11.20
2018-10-05T05:23:46.650Z,11.20
2018-10-05T05:26:15.039Z,11.20
2018-10-05T05:28:43.426Z,11.20
2018-10-05T05:31:11.847Z,11.20
2018-10-05T05:33:40.282Z,11.10
2018-10-05T05:36:09.483Z,11.10
2018-10-05T05:38:38.256Z,11.00
2018-10-05T05:41:06.691Z,11.00
2018-10-05T05:43:35.194Z,11.10
2018-10-05T05:46:03.571Z,11.00
2018-10-05T05:48:31.951Z,11.00
2018-10-05T05:51:00.330Z,11.00
2018-10-05T05:53:28.723Z,11.00
2018-10-05T05:55:57.107Z,10.90
2018-10-05T05:58:25.531Z,11.00
2018-10-05T06:00:53.970Z,11.00
2018-10-05T06:03:22.328Z,11.00
2018-10-05T06:05:50.730Z,11.00
2018-10-05T06:08:19.799Z,11.00
2018-10-05T06:10:48.879Z,11.10
2018-10-05T06:13:17.400Z,11.00
2018-10-05T06:15:45.788Z,11.00
2018-10-05T06:18:14.404Z,11.10
2018-10-05T06:20:42.787Z,11.10
2018-10-05T06:23:11.511Z,11.10
2018-10-05T06:25:39.891Z,11.10
2018-10-05T06:28:08.695Z,11.10
2018-10-05T06:30:37.198Z,11.10
2018-10-05T06:33:05.553Z,11.10
2018-10-05T06:35:34.078Z,11.10
2018-10-05T06:38:02.552Z,11.20
2018-10-05T06:40:30.929Z,11.10
2018-10-05T06:42:59.579Z,11.20
2018-10-05T06:45:27.943Z,11.20
2018-10-05T06:47:56.806Z,11.30
2018-10-05T06:50:25.531Z,11.30
2018-10-05T06:52:55.262Z,11.30
2018-10-05T06:55:23.630Z,11.30
2018-10-05T06:57:52.059Z,11.40
2018-10-05T07:00:20.421Z,11.40
2018-10-05T07:02:48.839Z,11.50
2018-10-05T07:05:17.255Z,11.60
2018-10-05T07:07:45.802Z,11.60
2018-10-05T07:10:13.995Z,11.70
2018-10-05T07:12:43.441Z,11.70
2018-10-05T07:15:11.812Z,11.80
2018-10-05T07:17:40.214Z,11.80
2018-10-05T07:20:08.610Z,11.90
2018-10-05T07:22:37.148Z,12.00
2018-10-05T07:25:05.555Z,12.00
2018-10-05T07:27:33.931Z,12.10
2018-10-05T07:30:02.937Z,12.20
2018-10-05T07:32:31.873Z,12.30
2018-10-05T07:35:00.243Z,12.40
2018-10-05T07:37:28.650Z,12.50
2018-10-05T07:39:57.061Z,12.60
2018-10-05T07:42:25.619Z,12.70
2018-10-05T07:44:53.988Z,12.80
2018-10-05T07:47:22.339Z,13.00
2018-10-05T07:49:50.721Z,13.00
2018-10-05T07:52:19.803Z,13.20
2018-10-05T07:54:48.234Z,13.30
2018-10-05T07:57:16.588Z,13.40
2018-10-05T07:59:44.983Z,13.50
2018-10-05T08:02:13.435Z,13.60
2018-10-05T08:04:41.902Z,13.70
2018-10-05T08:07:10.262Z,13.90
2018-10-05T08:09:38.725Z,14.00
2018-10-05T08:12:07.242Z,14.10
2018-10-05T08:14:35.611Z,14.20
2018-10-05T08:17:04.035Z,14.40
2018-10-05T08:19:32.488Z,14.50
2018-10-05T08:22:00.943Z,14.60
2018-10-05T08:24:29.346Z,14.70
2018-10-05T08:26:57.700Z,14.80
2018-10-05T08:29:26.078Z,14.90
2018-10-05T08:31:54.434Z,15.00
2018-10-05T08:34:22.900Z,15.10
2018-10-05T08:36:51.731Z,15.20
2018-10-05T08:39:20.236Z,15.30
2018-10-05T08:41:48.612Z,15.40
2018-10-05T08:44:17.204Z,15.50
2018-10-05T08:46:45.697Z,15.60
2018-10-05T08:49:14.120Z,15.70
2018-10-05T08:51:42.537Z,15.80
2018-10-05T08:54:10.934Z,15.80
2018-10-05T08:56:39.291Z,16.00
2018-10-05T08:59:07.714Z,16.10
2018-10-05T09:01:36.074Z,16.20
2018-10-05T09:04:04.636Z,16.30
2018-10-05T09:06:33.035Z,16.40
2018-10-05T09:09:01.387Z,16.50
2018-10-05T09:11:30.306Z,16.60
2018-10-05T09:13:58.766Z,16.70
2018-10-05T09:16:27.170Z,16.80
2018-10-05T09:18:55.569Z,16.90
2018-10-05T09:21:23.964Z,17.00
2018-10-05T09:23:52.352Z,17.10
2018-10-05T09:26:20.853Z,17.20
2018-10-05T09:28:49.235Z,17.40
2018-10-05T09:31:17.662Z,17.50
2018-10-05T09:33:46.024Z,17.50
2018-10-05T09:36:14.457Z,17.60
2018-10-05T09:38:42.871Z,17.70
2018-10-05T09:41:11.330Z,17.90
2018-10-05T09:43:39.691Z,18.00
2018-10-05T09:46:08.048Z,18.10
2018-10-05T09:48:36.455Z,18.20
2018-10-05T09:51:04.827Z,18.30
2018-10-05T09:53:33.227Z,18.40
2018-10-05T09:56:01.604Z,18.50
2018-10-05T09:58:30.098Z,18.70
2018-10-05T10:01:03.862Z,18.80
2018-10-05T10:03:33.936Z,18.90
2018-10-05T10:06:02.959Z,19.00
2018-10-05T10:08:31.629Z,19.10
2018-10-05T10:10:59.943Z,19.20
2018-10-05T10:13:28.983Z,19.40
2018-10-05T10:15:57.396Z,19.50
2018-10-05T10:18:25.906Z,19.60
2018-10-05T10:20:54.250Z,19.80
2018-10-05T10:23:22.865Z,19.90
2018-10-05T10:25:51.503Z,20.00
2018-10-05T10:28:19.877Z,20.20
2018-10-05T10:30:48.246Z,20.30
2018-10-05T10:33:16.683Z,20.40
2018-10-05T10:35:45.056Z,20.60
2018-10-05T10:38:13.412Z,20.70
2018-10-05T10:40:41.953Z,20.90
2018-10-05T10:43:10.380Z,21.00
2018-10-05T10:45:38.814Z,21.10
2018-10-05T10:48:07.209Z,21.20
2018-10-05T10:50:35.591Z,21.30
2018-10-05T10:53:03.943Z,21.40
2018-10-05T10:55:32.475Z,21.50
2018-10-05T10:58:00.864Z,21.70
2018-10-05T11:00:29.426Z,21.80
2018-10-05T11:02:57.812Z,22.10
2018-10-05T11:05:26.275Z,22.30
2018-10-05T11:07:54.638Z,22.50
2018-10-05T11:10:23.059Z,22.70
2018-10-05T11:12:51.597Z,22.90
2018-10-05T11:15:19.991Z,23.10
2018-10-05T11:17:48.541Z,23.20
2018-10-05T11:20:16.915Z,23.30
2018-10-05T11:22:45.260Z,23.40
2018-10-05T11:25:13.758Z,23.50
2018-10-05T11:27:42.391Z,23.50
2018-10-05T11:30:10.811Z,23.50
2018-10-05T11:32:39.185Z,23.60
2018-10-05T11:35:07.680Z,23.80
2018-10-05T11:37:36.075Z,24.00
2018-10-05T11:40:04.642Z,24.10
2018-10-05T11:42:33.015Z,24.30
2018-10-05T11:45:01.715Z,24.60
2018-10-05T11:47:30.087Z,24.80
2018-10-05T11:49:58.497Z,25.00
2018-10-05T11:52:27.132Z,25.10
2018-10-05T11:54:55.590Z,25.30
2018-10-05T11:57:24.015Z,25.40
2018-10-05T11:59:52.446Z,25.60
2018-10-05T12:02:20.791Z,25.60
2018-10-05T12:04:49.229Z,25.60
2018-10-05T12:07:17.607Z,25.70
2018-10-05T12:09:46.021Z,25.80
2018-10-05T12:12:14.426Z,25.90
2018-10-05T12:14:43.931Z,26.10
2018-10-05T12:17:12.284Z,26.10
2018-10-05T12:19:40.646Z,26.20
2018-10-05T12:22:09.113Z,26.10
2018-10-05T12:24:37.551Z,26.20
2018-10-05T12:27:05.987Z,26.30
2018-10-05T12:29:34.355Z,26.50
2018-10-05T12:32:02.730Z,26.70
2018-10-05T12:34:31.253Z,26.80
2018-10-05T12:36:59.704Z,27.00
2018-10-05T12:39:28.026Z,27.10
2018-10-05T12:41:56.524Z,27.30
2018-10-05T12:44:25.105Z,27.50
2018-10-05T12:46:53.472Z,27.60
2018-10-05T12:49:21.842Z,27.60
2018-10-05T12:51:50.335Z,27.80
2018-10-05T12:54:18.801Z,27.90
2018-10-05T12:56:48.098Z,27.90
2018-10-05T12:59:16.502Z,27.90
2018-10-05T13:01:45.110Z,28.00
2018-10-05T13:04:14.962Z,27.90
2018-10-05T13:06:43.444Z,27.90
2018-10-05T13:09:11.803Z,28.00
2018-10-05T13:11:40.596Z,28.00
2018-10-05T13:14:08.954Z,28.10
2018-10-05T13:16:37.650Z,28.20
2018-10-05T13:19:06.256Z,28.30
2018-10-05T13:21:34.787Z,28.30
2018-10-05T13:24:04.278Z,28.40
2018-10-05T13:26:33.619Z,28.50
2018-10-05T13:29:02.087Z,28.60
2018-10-05T13:31:30.532Z,28.70
2018-10-05T13:33:59.017Z,28.80
2018-10-05T13:36:27.555Z,28.90
2018-10-05T13:38:55.891Z,29.00
2018-10-05T13:41:24.310Z,29.10
2018-10-05T13:43:52.647Z,29.20
2018-10-05T13:46:21.167Z,29.30
2018-10-05T13:48:49.503Z,29.30
2018-10-05T13:51:17.892Z,29.40
2018-10-05T13:53:46.226Z,29.50
2018-10-05T13:56:14.585Z,29.60
2018-10-05T13:58:42.943Z,29.70
2018-10-05T14:01:11.323Z,29.70
2018-10-05T14:03:39.672Z,29.80
2018-10-05T14:06:08.375Z,29.90
2018-10-05T14:08:36.744Z,29.90
2018-10-05T14:11:05.120Z,29.90
2018-10-05T14:13:33.503Z,30.00
2018-10-05T14:16:02.554Z,30.00
2018-10-05T14:18:31.023Z,30.00
2018-10-05T14:21:00.402Z,30.00
2018-10-05T14:23:28.912Z,30.10
2018-10-05T14:25:57.492Z,30.10
2018-10-05T14:28:25.829Z,30.20
2018-10-05T14:30:54.399Z,30.20
2018-10-05T14:33:22.938Z,30.40
2018-10-05T14:35:51.310Z,30.40
2018-10-05T14:38:19.633Z,30.40
2018-10-05T14:40:48.050Z,30.50
2018-10-05T14:43:16.396Z,30.50
2018-10-05T14:45:44.880Z,30.50
2018-10-05T14:48:13.162Z,30.50
2018-10-05T14:50:41.547Z,30.40
2018-10-05T14:53:09.948Z,30.40
2018-10-05T14:55:38.329Z,30.30
2018-10-05T14:58:06.698Z,30.30
2018-10-05T15:00:35.060Z,30.30
2018-10-05T15:03:03.886Z,30.30
2018-10-05T15:05:32.311Z,30.40
2018-10-05T15:08:00.857Z,30.40
2018-10-05T15:10:29.608Z,30.40
2018-10-05T15:12:58.079Z,30.40
2018-10-05T15:15:26.432Z,30.40
2018-10-05T15:17:54.785Z,30.40
2018-10-05T15:20:23.255Z,30.30
2018-10-05T15:22:51.695Z,30.20
2018-10-05T15:25:20.154Z,30.20
2018-10-05T15:27:48.631Z,30.10
2018-10-05T15:30:17.114Z,30.20
2018-10-05T15:32:46.522Z,30.10
2018-10-05T15:35:14.993Z,30.10
2018-10-05T15:37:43.607Z,30.10
2018-10-05T15:40:11.980Z,30.10
2018-10-05T15:42:40.355Z,30.00
2018-10-05T15:45:08.759Z,29.80
2018-10-05T15:47:37.197Z,29.80
2018-10-05T15:50:06.374Z,29.70
2018-10-05T15:52:35.129Z,29.60
2018-10-05T15:55:03.858Z,29.40
2018-10-05T15:57:32.221Z,29.20
2018-10-05T16:00:00.690Z,29.10
2018-10-05T16:02:29.011Z,28.90
2018-10-05T16:04:58.008Z,28.80
2018-10-05T16:07:26.484Z,28.70
2018-10-05T16:09:54.868Z,28.50
2018-10-05T16:12:23.294Z,28.40
2018-10-05T16:14:52.177Z,28.10
2018-10-05T16:17:21.823Z,28.00
2018-10-05T16:19:50.238Z,27.80
2018-10-05T16:22:18.994Z,27.60
2018-10-05T16:24:47.555Z,27.40
2018-10-05T16:27:15.903Z,27.10
2018-10-05T16:29:44.267Z,26.90
2018-10-05T16:32:16.763Z,26.70
2018-10-05T16:34:45.284Z,26.40
2018-10-05T16:37:13.798Z,26.10
2018-10-05T16:39:42.382Z,26.00
2018-10-05T16:42:10.729Z,25.80
2018-10-05T16:44:39.128Z,25.60
2018-10-05T16:47:07.498Z,25.40
2018-10-05T16:49:35.905Z,25.20
2018-10-05T16:52:04.239Z,25.10
2018-10-05T16:54:32.619Z,24.90
2018-10-05T16:57:01.100Z,24.70
2018-10-05T16:59:29.484Z,24.50
2018-10-05T17:01:57.959Z,24.20
2018-10-05T17:04:26.404Z,24.10
2018-10-05T17:06:54.799Z,23.90
2018-10-05T17:09:23.230Z,23.80
2018-10-05T17:11:51.560Z,23.70
2018-10-05T17:14:19.994Z,23.60
2018-10-05T17:16:48.352Z,23.50
2018-10-05T17:19:16.792Z,23.40
2018-10-05T17:21:45.185Z,23.30
2018-10-05T17:24:13.923Z,23.20
2018-10-05T17:26:42.294Z,23.10
2018-10-05T17:29:12.126Z,22.90
2018-10-05T17:31:40.544Z,22.70
2018-10-05T17:34:09.024Z,22.60
2018-10-05T17:36:37.447Z,22.50
2018-10-05T17:39:08.772Z,22.40
2018-10-05T17:41:37.155Z,22.30
2018-10-05T17:44:05.538Z,22.30
2018-10-05T17:46:34.520Z,22.20
2018-10-05T17:49:03.005Z,22.10
2018-10-05T17:51:31.365Z,22.00
2018-10-05T17:53:59.756Z,21.90
2018-10-05T17:56:28.526Z,21.80
2018-10-05T17:58:57.081Z,21.60
2018-10-05T18:01:26.638Z,21.50
2018-10-05T18:03:56.031Z,21.40
2018-10-05T18:06:25.066Z,21.40
2018-10-05T18:08:54.176Z,21.30
2018-10-05T18:11:24.034Z,21.20
2018-10-05T18:13:53.282Z,21.10
2018-10-05T18:16:21.791Z,21.00
2018-10-05T18:18:50.200Z,20.90
2018-10-05T18:21:18.555Z,20.80
2018-10-05T18:23:46.964Z,20.80
2018-10-05T18:26:15.715Z,20.60
2018-10-05T18:28:44.127Z,20.60
2018-10-05T18:31:12.458Z,20.50
2018-10-05T18:33:40.879Z,20.40
2018-10-05T18:36:09.326Z,20.40
2018-10-05T18:38:37.808Z,20.30
2018-10-05T18:41:06.435Z,20.20
2018-10-05T18:43:34.769Z,20.20
2018-10-05T18:46:03.250Z,20.10
2018-10-05T18:48:31.663Z,20.00
2018-10-05T18:51:00.158Z,20.00
2018-10-05T18:53:28.554Z,20.00
2018-10-05T18:56:06.990Z,19.90
2018-10-05T18:58:35.492Z,19.80
2018-10-05T19:01:03.857Z,19.80
2018-10-05T19:03:32.263Z,19.70
2018-10-05T19:06:00.617Z,19.60
2018-10-05T19:08:29.036Z,19.60
2018-10-05T19:10:57.394Z,19.50
2018-10-05T19:13:25.801Z,19.50
2018-10-05T19:15:54.204Z,19.50
2018-10-05T19:18:22.681Z,19.40
2018-10-05T19:20:51.045Z,19.40
2018-10-05T19:23:19.419Z,19.30
2018-10-05T19:25:47.770Z,19.20
2018-10-05T19:28:16.343Z,19.20
2018-10-05T19:30:44.790Z,19.10
2018-10-05T19:33:13.190Z,19.00
2018-10-05T19:35:41.560Z,19.00
2018-10-05T19:38:10.277Z,19.00
2018-10-05T19:40:39.089Z,19.00
2018-10-05T19:43:07.470Z,19.00
2018-10-05T19:45:36.055Z,19.00
2018-10-05T19:48:04.804Z,18.90
2018-10-05T19:50:33.219Z,18.90
2018-10-05T19:53:01.727Z,18.90
2018-10-05T19:55:30.157Z,18.80
2018-10-05T19:57:59.139Z,18.80
2018-10-05T20:00:27.954Z,18.70
2018-10-05T20:02:56.582Z,18.70
2018-10-05T20:05:25.533Z,18.60
2018-10-05T20:07:56.308Z,18.60
2018-10-05T20:10:24.798Z,18.50
2018-10-05T20:12:53.227Z,18.50
2018-10-05T20:15:21.818Z,18.50
2018-10-05T20:17:51.456Z,18.50
2018-10-05T20:20:19.781Z,18.50
2018-10-05T20:22:48.448Z,18.40
2018-10-05T20:25:17.145Z,18.30
2018-10-05T20:27:45.605Z,18.30
2018-10-05T20:30:14.314Z,18.30
2018-10-05T20:32:42.825Z,18.20
2018-10-05T20:35:11.195Z,18.10
2018-10-05T20:37:39.830Z,18.10
2018-10-05T20:40:08.054Z,18.10
2018-10-05T20:42:36.603Z,18.00
2018-10-05T20:45:05.011Z,17.90
2018-10-05T20:47:33.403Z,17.90
2018-10-05T20:50:01.768Z,17.90
2018-10-05T20:52:30.852Z,17.80
2018-10-05T20:54:59.310Z,17.70
2018-10-05T20:57:27.787Z,17.70
2018-10-05T20:59:56.168Z,17.60
2018-10-05T21:02:24.791Z,17.60
2018-10-05T21:04:53.186Z,17.50
2018-10-05T21:07:21.739Z,17.50
2018-10-05T21:09:51.473Z,17.40
2018-10-05T21:12:19.746Z,17.40
2018-10-05T21:14:48.238Z,17.40
2018-10-05T21:17:16.655Z,17.30
2018-10-05T21:19:45.299Z,17.30
2018-10-05T21:22:13.744Z,17.30
2018-10-05T21:24:42.351Z,17.20
2018-10-05T21:27:10.899Z,17.10
2018-10-05T21:29:39.278Z,17.10
2018-10-05T21:32:08.182Z,17.10
2018-10-05T21:34:36.572Z,17.10
2018-10-05T21:37:05.751Z,17.10
2018-10-05T21:39:34.218Z,17.00
2018-10-05T21:42:02.642Z,16.90
2018-10-05T21:44:31.314Z,16.90
2018-10-05T21:47:00.088Z,16.80
2018-10-05T21:49:28.483Z,16.80
2018-10-05T21:51:56.897Z,16.80
2018-10-05T21:54:25.607Z,16.80
2018-10-05T21:56:54.076Z,16.80
2018-10-05T21:59:22.506Z,16.80
2018-10-05T22:01:50.914Z,16.80
2018-10-05T22:04:19.384Z,16.80
2018-10-05T22:06:48.182Z,16.80
2018-10-05T22:09:16.533Z,16.70
2018-10-05T22:11:45.144Z,16.70
2018-10-05T22:14:13.520Z,16.60
2018-10-05T22:16:42.139Z,16.60
2018-10-05T22:19:10.504Z,16.50
2018-10-05T22:21:38.895Z,16.50
2018-10-05T22:24:07.374Z,16.50
2018-10-05T22:26:35.812Z,16.40
2018-10-05T22:29:04.167Z,16.40
2018-10-05T22:31:32.736Z,16.40
2018-10-05T22:34:01.339Z,16.40
2018-10-05T22:36:30.235Z,16.40
2018-10-05T22:38:58.610Z,16.30
2018-10-05T22:41:26.963Z,16.30
2018-10-05T22:43:55.752Z,16.20
2018-10-05T22:46:24.126Z,16.30
2018-10-05T22:48:52.565Z,16.20
2018-10-05T22:51:21.311Z,16.10
2018-10-05T22:53:49.732Z,16.10
2018-10-05T22:56:18.279Z,16.10
2018-10-05T22:58:46.658Z,16.10
2018-10-05T23:01:15.115Z,16.00
2018-10-05T23:03:43.690Z,16.00
2018-10-05T23:06:12.068Z,16.00
2018-10-05T23:08:40.494Z,16.00
2018-10-05T23:11:08.946Z,15.90
2018-10-05T23:13:37.670Z,15.90
2018-10-05T23:16:06.093Z,16.00
2018-10-05T23:18:34.518Z,15.80
2018-10-05T23:21:03.379Z,15.90
2018-10-05T23:23:31.826Z,15.90
2018-10-05T23:26:00.231Z,15.80
2018-10-05T23:28:28.699Z,15.80
2018-10-05T23:30:57.190Z,15.70
2018-10-05T23:33:25.587Z,15.70
2018-10-05T23:35:54.110Z,15.60
2018-10-05T23:38:22.491Z,15.60
2018-10-05T23:40:50.858Z,15.60
2018-10-05T23:43:19.380Z,15.50
2018-10-05T23:45:47.748Z,15.60
2018-10-05T23:48:16.359Z,15.50
2018-10-05T23:50:44.762Z,15.50
2018-10-05T23:53:13.215Z,15.50
2018-10-05T23:55:41.599Z,15.50
2018-10-05T23:58:10.249Z,15.40
